createdAt,value
2022-08-03T00:02:15.606Z,19.53
2022-08-03T00:04:42.904Z,19.51
2022-08-03T00:07:10.026Z,19.43
2022-08-03T00:09:37.181Z,19.35
2022-08-03T00:12:04.472Z,19.39
2022-08-03T00:14:31.483Z,19.36
2022-08-03T00:16:58.685Z,19.34
2022-08-03T00:19:25.894Z,19.32
2022-08-03T00:21:52.928Z,19.33
2022-08-03T00:24:20.207Z,19.25
2022-08-03T00:26:47.454Z,19.28
2022-08-03T00:29:14.451Z,19.27
2022-08-03T00:31:52.855Z,19.30
2022-08-03T00:34:36.553Z,19.29
2022-08-03T00:37:13.431Z,19.27
2022-08-03T00:39:41.108Z,19.23
2022-08-03T00:42:08.253Z,19.24
2022-08-03T00:44:43.224Z,19.31
2022-08-03T00:47:10.862Z,19.19
2022-08-03T00:49:41.078Z,19.29
2022-08-03T00:52:10.127Z,19.30
2022-08-03T00:54:38.457Z,19.30
2022-08-03T00:57:05.750Z,19.32
2022-08-03T00:59:32.847Z,19.31
2022-08-03T01:01:59.925Z,19.32
2022-08-03T01:04:26.987Z,19.32
2022-08-03T01:07:10.879Z,19.19
2022-08-03T01:09:56.647Z,19.36
2022-08-03T01:12:39.214Z,19.32
2022-08-03T01:15:24.420Z,19.33
2022-08-03T01:18:05.308Z,19.32
2022-08-03T01:20:39.019Z,19.35
2022-08-03T01:23:40.947Z,19.40
2022-08-03T01:26:41.400Z,19.28
2022-08-03T01:29:35.917Z,19.45
2022-08-03T01:33:00.126Z,19.31
2022-08-03T01:35:01.350Z,19.48
2022-08-03T01:37:38.851Z,19.54
2022-08-03T01:40:08.215Z,19.54
2022-08-03T01:42:38.073Z,19.63
2022-08-03T01:45:07.660Z,19.62
2022-08-03T01:47:35.809Z,19.63
2022-08-03T01:50:05.659Z,19.68
2022-08-03T01:52:34.035Z,19.66
2022-08-03T01:55:03.348Z,19.67
2022-08-03T01:57:31.412Z,19.65
2022-08-03T02:00:01.670Z,19.70
2022-08-03T02:02:39.839Z,19.68
2022-08-03T02:05:10.965Z,19.66
2022-08-03T02:07:40.959Z,19.65
2022-08-03T02:10:09.779Z,19.53
2022-08-03T02:12:39.095Z,19.59
2022-08-03T02:15:07.764Z,19.62
2022-08-03T02:17:39.486Z,19.57
2022-08-03T02:20:11.255Z,19.63
2022-08-03T02:22:42.776Z,19.64
2022-08-03T02:25:11.586Z,19.61
2022-08-03T02:27:50.450Z,19.64
2022-08-03T02:30:19.456Z,19.61
2022-08-03T02:32:57.357Z,19.60
2022-08-03T02:35:27.507Z,19.56
2022-08-03T02:38:01.416Z,19.60
2022-08-03T02:40:29.604Z,19.60
2022-08-03T02:43:00.621Z,19.61
2022-08-03T02:45:29.736Z,19.62
2022-08-03T02:48:03.075Z,19.61
2022-08-03T02:50:32.083Z,19.56
2022-08-03T02:53:01.790Z,19.57
2022-08-03T02:55:29.839Z,19.62
2022-08-03T02:58:01.691Z,19.52
2022-08-03T03:00:31.856Z,19.52
2022-08-03T03:03:00.851Z,19.60
2022-08-03T03:05:54.774Z,19.61
2022-08-03T03:08:20.662Z,19.50
2022-08-03T03:10:55.638Z,19.59
2022-08-03T03:13:23.582Z,19.59
2022-08-03T03:15:52.419Z,19.41
2022-08-03T03:18:22.748Z,19.56
2022-08-03T03:20:53.233Z,19.54
2022-08-03T03:23:22.547Z,19.51
2022-08-03T03:25:51.603Z,19.45
2022-08-03T03:28:19.380Z,19.45
2022-08-03T03:30:53.206Z,19.52
2022-08-03T03:33:22.042Z,19.44
2022-08-03T03:35:49.766Z,19.53
2022-08-03T03:38:16.895Z,19.52
2022-08-03T03:40:44.333Z,19.48
2022-08-03T03:43:12.853Z,19.46
2022-08-03T03:45:43.256Z,19.51
2022-08-03T03:48:10.518Z,19.46
2022-08-03T03:50:41.132Z,19.47
2022-08-03T03:53:12.628Z,19.46
2022-08-03T03:56:02.064Z,19.49
2022-08-03T03:58:27.880Z,19.51
2022-08-03T04:00:54.995Z,19.47
2022-08-03T04:03:22.222Z,19.54
2022-08-03T04:06:08.217Z,19.56
2022-08-03T04:08:54.168Z,19.55
2022-08-03T04:11:30.047Z,19.58
2022-08-03T04:14:19.979Z,19.53
2022-08-03T04:16:55.262Z,19.63
2022-08-03T04:19:43.896Z,19.68
2022-08-03T04:22:14.344Z,19.76
2022-08-03T04:24:47.100Z,19.81
2022-08-03T04:27:17.169Z,19.85
2022-08-03T04:29:48.549Z,19.88
2022-08-03T04:32:17.819Z,19.95
2022-08-03T04:34:45.518Z,19.89
2022-08-03T04:37:17.815Z,19.97
2022-08-03T04:39:45.175Z,20.06
2022-08-03T04:42:14.234Z,20.13
2022-08-03T04:44:44.602Z,20.10
2022-08-03T04:47:11.604Z,20.18
2022-08-03T04:49:39.522Z,20.19
2022-08-03T04:52:08.827Z,20.21
2022-08-03T04:54:48.692Z,20.22
2022-08-03T04:57:22.024Z,20.28
2022-08-03T04:59:59.586Z,20.31
2022-08-03T05:02:29.268Z,20.32
2022-08-03T05:04:56.491Z,20.26
2022-08-03T05:07:24.994Z,20.22
2022-08-03T05:10:01.745Z,20.34
2022-08-03T05:12:32.933Z,20.28
2022-08-03T05:15:01.050Z,20.35
2022-08-03T05:17:29.117Z,20.42
2022-08-03T05:19:56.872Z,20.47
2022-08-03T05:22:24.052Z,20.46
2022-08-03T05:24:51.443Z,20.57
2022-08-03T05:27:22.106Z,20.64
2022-08-03T05:29:50.558Z,20.71
2022-08-03T05:32:18.240Z,20.76
2022-08-03T05:34:45.492Z,20.79
2022-08-03T05:37:12.560Z,20.77
2022-08-03T05:39:39.670Z,20.74
2022-08-03T05:42:06.660Z,20.75
2022-08-03T05:44:33.719Z,20.80
2022-08-03T05:47:00.798Z,20.91
2022-08-03T05:49:28.100Z,21.02
2022-08-03T05:51:59.806Z,21.11
2022-08-03T05:54:56.211Z,21.32
2022-08-03T05:57:22.887Z,21.31
2022-08-03T05:59:55.696Z,21.61
2022-08-03T06:02:28.554Z,21.75
2022-08-03T06:04:55.610Z,21.88
2022-08-03T06:07:22.777Z,22.02
2022-08-03T06:10:35.941Z,22.13
2022-08-03T06:12:37.412Z,22.22
2022-08-03T06:15:05.726Z,22.22
2022-08-03T06:20:06.405Z,22.61
2022-08-03T06:22:33.848Z,22.66
2022-08-03T06:25:04.858Z,22.74
2022-08-03T06:27:37.083Z,22.86
2022-08-03T06:30:05.092Z,22.97
2022-08-03T06:32:32.245Z,23.14
2022-08-03T06:34:59.739Z,23.24
2022-08-03T06:37:27.399Z,23.39
2022-08-03T06:39:54.708Z,23.63
2022-08-03T06:42:22.629Z,23.72
2022-08-03T06:44:50.066Z,23.74
2022-08-03T06:47:17.432Z,23.77
2022-08-03T06:49:44.514Z,23.94
2022-08-03T06:52:38.171Z,24.02
2022-08-03T06:55:07.128Z,24.27
2022-08-03T06:57:34.130Z,24.50
2022-08-03T07:00:09.608Z,24.62
2022-08-03T07:02:40.185Z,24.69
2022-08-03T07:05:08.722Z,24.75
2022-08-03T07:07:36.247Z,24.72
2022-08-03T07:10:04.528Z,24.62
2022-08-03T07:12:32.637Z,24.60
2022-08-03T07:15:02.642Z,24.74
2022-08-03T07:17:31.938Z,24.65
2022-08-03T07:20:00.315Z,24.87
2022-08-03T07:22:27.869Z,25.04
2022-08-03T07:24:55.249Z,25.23
2022-08-03T07:27:22.733Z,25.42
2022-08-03T07:29:49.908Z,25.57
2022-08-03T07:32:17.082Z,25.65
2022-08-03T07:34:44.389Z,25.76
2022-08-03T07:37:11.730Z,25.86
2022-08-03T07:39:38.806Z,25.96
2022-08-03T07:42:06.040Z,26.01
2022-08-03T07:44:33.607Z,26.19
2022-08-03T07:47:03.340Z,26.19
2022-08-03T07:49:31.003Z,26.13
2022-08-03T07:52:17.809Z,26.01
2022-08-03T07:54:48.295Z,25.86
2022-08-03T07:57:15.791Z,25.69
2022-08-03T07:59:56.838Z,25.64
2022-08-03T08:02:39.583Z,25.82
2022-08-03T08:05:07.132Z,25.91
2022-08-03T08:07:34.303Z,26.36
2022-08-03T08:10:01.256Z,26.70
2022-08-03T08:12:28.468Z,27.14
2022-08-03T08:14:55.577Z,27.41
2022-08-03T08:17:22.687Z,27.50
2022-08-03T08:19:51.608Z,27.60
2022-08-03T08:22:29.931Z,27.52
2022-08-03T08:25:01.210Z,27.61
2022-08-03T08:28:31.871Z,27.91
2022-08-03T08:30:19.654Z,28.21
2022-08-03T08:32:47.839Z,28.50
2022-08-03T08:35:15.660Z,28.63
2022-08-03T08:37:43.587Z,28.78
2022-08-03T08:40:21.966Z,28.84
2022-08-03T08:42:58.564Z,28.98
2022-08-03T08:45:27.291Z,29.14
2022-08-03T08:48:01.648Z,29.22
2022-08-03T08:50:33.771Z,29.46
2022-08-03T08:53:04.019Z,29.49
2022-08-03T08:55:58.342Z,29.68
2022-08-03T08:58:22.561Z,29.70
2022-08-03T09:00:51.130Z,29.73
2022-08-03T09:03:28.985Z,29.86
2022-08-03T09:05:59.815Z,29.91
2022-08-03T09:08:27.038Z,29.96
2022-08-03T09:10:54.110Z,30.14
2022-08-03T09:13:21.450Z,30.28
2022-08-03T09:15:57.151Z,30.29
2022-08-03T09:18:32.739Z,30.38
2022-08-03T09:21:34.411Z,30.62
2022-08-03T09:24:05.799Z,30.74
2022-08-03T09:26:37.400Z,30.85
2022-08-03T09:29:14.623Z,30.83
2022-08-03T09:31:47.301Z,30.92
2022-08-03T09:34:17.695Z,31.04
2022-08-03T09:36:46.133Z,31.06
2022-08-03T09:39:18.462Z,31.11
2022-08-03T09:42:03.399Z,31.09
2022-08-03T09:44:44.456Z,30.98
2022-08-03T09:47:13.722Z,31.14
2022-08-03T09:49:42.666Z,31.26
2022-08-03T09:52:38.765Z,31.30
2022-08-03T09:56:30.422Z,31.47
2022-08-03T09:58:07.553Z,31.49
2022-08-03T10:00:52.614Z,31.68
2022-08-03T10:03:20.177Z,31.76
2022-08-03T10:05:48.086Z,31.86
2022-08-03T10:08:16.589Z,31.86
2022-08-03T10:10:44.973Z,31.95
2022-08-03T10:13:14.434Z,31.80
2022-08-03T10:16:21.519Z,31.92
2022-08-03T10:18:29.002Z,31.93
2022-08-03T10:21:04.921Z,32.18
2022-08-03T10:23:35.754Z,32.11
2022-08-03T10:26:04.983Z,32.14
2022-08-03T10:28:44.732Z,32.13
2022-08-03T10:31:14.385Z,32.17
2022-08-03T10:33:52.812Z,31.82
2022-08-03T10:36:25.067Z,31.72
2022-08-03T10:38:53.865Z,31.63
2022-08-03T10:41:23.573Z,31.73
2022-08-03T10:44:03.242Z,31.92
2022-08-03T10:46:30.309Z,31.94
2022-08-03T10:48:58.865Z,32.06
2022-08-03T10:51:30.718Z,31.95
2022-08-03T10:53:58.774Z,31.63
2022-08-03T10:56:54.695Z,31.47
2022-08-03T10:59:46.562Z,31.10
2022-08-03T11:02:14.478Z,30.76
2022-08-03T11:04:43.029Z,30.57
2022-08-03T11:07:16.595Z,30.49
2022-08-03T11:09:49.948Z,30.66
2022-08-03T11:12:29.887Z,30.90
2022-08-03T11:15:05.413Z,31.34
2022-08-03T11:17:45.809Z,31.57
2022-08-03T11:20:14.277Z,31.71
2022-08-03T11:22:51.716Z,31.78
2022-08-03T11:25:52.999Z,31.86
2022-08-03T11:28:42.335Z,32.03
2022-08-03T11:31:49.281Z,32.09
2022-08-03T11:34:17.785Z,32.12
2022-08-03T11:37:24.062Z,32.08
2022-08-03T11:39:54.950Z,32.14
2022-08-03T11:42:25.049Z,32.12
2022-08-03T11:44:54.043Z,32.22
2022-08-03T11:47:24.257Z,32.19
2022-08-03T11:49:54.283Z,32.32
2022-08-03T11:52:27.250Z,32.19
2022-08-03T11:54:56.528Z,31.90
2022-08-03T11:59:09.331Z,31.87
2022-08-03T12:00:28.078Z,31.89
2022-08-03T12:03:03.720Z,31.97
2022-08-03T12:05:56.956Z,32.00
2022-08-03T12:08:26.834Z,31.95
2022-08-03T12:10:55.719Z,31.86
2022-08-03T12:14:44.067Z,31.72
2022-08-03T12:16:22.292Z,31.89
2022-08-03T12:19:05.191Z,31.91
2022-08-03T12:21:32.673Z,31.97
2022-08-03T12:24:01.719Z,31.96
2022-08-03T12:26:58.261Z,31.80
2022-08-03T12:29:26.824Z,31.38
2022-08-03T12:31:54.115Z,31.21
2022-08-03T12:34:21.179Z,31.23
2022-08-03T12:36:56.772Z,31.32
2022-08-03T12:39:25.899Z,31.34
2022-08-03T12:41:54.587Z,31.37
2022-08-03T12:44:31.091Z,31.40
2022-08-03T12:46:59.303Z,31.34
2022-08-03T12:49:27.054Z,31.29
2022-08-03T12:51:54.189Z,31.37
2022-08-03T12:54:24.417Z,31.24
2022-08-03T12:57:15.875Z,31.16
2022-08-03T12:59:53.058Z,31.26
2022-08-03T13:02:24.176Z,31.28
2022-08-03T13:04:53.381Z,31.23
2022-08-03T13:07:21.660Z,31.25
2022-08-03T13:09:54.041Z,31.19
2022-08-03T13:12:26.540Z,31.26
2022-08-03T13:14:58.497Z,31.27
2022-08-03T13:17:27.282Z,31.31
2022-08-03T13:19:54.858Z,31.35
2022-08-03T13:22:24.338Z,31.40
2022-08-03T13:24:53.665Z,31.40
2022-08-03T13:28:01.233Z,31.29
2022-08-03T13:30:09.089Z,31.00
2022-08-03T13:32:36.644Z,30.76
2022-08-03T13:35:04.309Z,30.66
2022-08-03T13:37:32.532Z,30.68
2022-08-03T13:40:02.666Z,30.65
2022-08-03T13:42:32.976Z,30.62
2022-08-03T13:45:00.874Z,30.69
2022-08-03T13:47:28.523Z,30.71
2022-08-03T13:50:01.730Z,30.67
2022-08-03T13:52:31.761Z,30.63
2022-08-03T13:54:59.082Z,30.58
2022-08-03T13:58:04.794Z,30.56
2022-08-03T14:00:26.391Z,30.42
2022-08-03T14:03:02.792Z,30.42
2022-08-03T14:05:34.910Z,30.43
2022-08-03T14:08:04.014Z,30.38
2022-08-03T14:10:33.665Z,30.33
2022-08-03T14:13:00.804Z,30.26
2022-08-03T14:15:28.943Z,30.30
2022-08-03T14:17:58.771Z,30.18
2022-08-03T14:20:38.717Z,30.12
2022-08-03T14:23:15.003Z,30.12
2022-08-03T14:25:50.179Z,30.07
2022-08-03T14:28:18.865Z,30.14
2022-08-03T14:30:46.364Z,30.11
2022-08-03T14:33:13.375Z,30.09
2022-08-03T14:35:40.887Z,29.97
2022-08-03T14:38:08.039Z,30.09
2022-08-03T14:40:35.194Z,30.10
2022-08-03T14:43:02.822Z,30.07
2022-08-03T14:45:29.968Z,29.99
2022-08-03T14:50:30.058Z,29.95
2022-08-03T14:50:50.144Z,29.86
2022-08-03T14:53:18.754Z,29.88
2022-08-03T14:55:51.547Z,29.82
2022-08-03T14:58:23.800Z,29.76
2022-08-03T15:00:54.413Z,29.69
2022-08-03T15:03:25.578Z,29.65
2022-08-03T15:05:56.203Z,29.62
2022-08-03T15:08:24.851Z,29.56
2022-08-03T15:10:52.537Z,29.54
2022-08-03T15:13:20.427Z,29.56
2022-08-03T15:15:48.552Z,29.56
2022-08-03T15:18:16.076Z,29.55
2022-08-03T15:20:45.560Z,29.53
2022-08-03T15:23:14.075Z,29.46
2022-08-03T15:26:28.008Z,29.44
2022-08-03T15:28:28.695Z,29.38
2022-08-03T15:30:56.593Z,29.47
2022-08-03T15:33:23.701Z,29.50
2022-08-03T15:35:50.679Z,29.50
2022-08-03T15:38:17.909Z,29.47
2022-08-03T15:40:45.358Z,29.37
2022-08-03T15:43:12.555Z,29.38
2022-08-03T15:45:42.002Z,29.39
2022-08-03T15:48:09.217Z,29.35
2022-08-03T15:50:36.695Z,29.30
2022-08-03T15:53:05.064Z,29.25
2022-08-03T15:55:32.377Z,29.25
2022-08-03T15:59:09.397Z,29.22
2022-08-03T16:00:46.868Z,29.20
2022-08-03T16:03:14.232Z,29.16
2022-08-03T16:05:41.546Z,29.19
2022-08-03T16:08:13.559Z,29.15
2022-08-03T16:10:41.142Z,29.13
2022-08-03T16:13:08.816Z,29.02
2022-08-03T16:15:38.351Z,29.09
2022-08-03T16:18:06.582Z,29.04
2022-08-03T16:20:35.061Z,29.02
2022-08-03T16:23:10.599Z,29.01
2022-08-03T16:25:49.155Z,28.98
2022-08-03T16:28:17.487Z,28.89
2022-08-03T16:30:46.883Z,28.93
2022-08-03T16:33:17.401Z,28.92
2022-08-03T16:35:46.798Z,28.84
2022-08-03T16:38:18.561Z,28.89
2022-08-03T16:40:52.566Z,28.88
2022-08-03T16:43:22.247Z,28.86
2022-08-03T16:45:49.797Z,28.85
2022-08-03T16:48:18.369Z,28.83
2022-08-03T16:50:46.188Z,28.81
2022-08-03T16:53:16.737Z,28.78
2022-08-03T16:55:53.788Z,28.77
2022-08-03T16:58:34.233Z,28.74
2022-08-03T17:01:20.927Z,28.71
2022-08-03T17:04:04.708Z,28.64
2022-08-03T17:06:37.530Z,28.58
2022-08-03T17:09:10.576Z,28.60
2022-08-03T17:11:44.052Z,28.50
2022-08-03T17:14:15.699Z,28.53
2022-08-03T17:16:53.042Z,28.36
2022-08-03T17:19:23.513Z,28.48
2022-08-03T17:22:04.169Z,28.43
2022-08-03T17:24:34.757Z,28.38
2022-08-03T17:27:03.438Z,28.29
2022-08-03T17:29:35.272Z,28.17
2022-08-03T17:32:09.769Z,28.13
2022-08-03T17:34:38.909Z,28.17
2022-08-03T17:37:07.045Z,28.11
2022-08-03T17:39:59.445Z,27.99
2022-08-03T17:42:31.632Z,28.00
2022-08-03T17:45:04.003Z,27.94
2022-08-03T17:47:41.161Z,27.90
2022-08-03T17:50:25.100Z,27.83
2022-08-03T17:53:07.606Z,27.70
2022-08-03T17:55:55.978Z,27.69
2022-08-03T17:58:55.176Z,27.52
2022-08-03T18:01:59.529Z,27.50
2022-08-03T18:04:34.986Z,27.45
2022-08-03T18:07:10.972Z,27.42
2022-08-03T18:10:06.331Z,27.21
2022-08-03T18:12:41.421Z,27.16
2022-08-03T18:15:20.862Z,27.13
2022-08-03T18:17:55.411Z,27.08
2022-08-03T18:20:31.210Z,26.97
2022-08-03T18:23:06.358Z,26.95
2022-08-03T18:25:49.150Z,26.91
2022-08-03T18:28:19.210Z,26.83
2022-08-03T18:30:54.101Z,26.76
2022-08-03T18:34:17.948Z,26.66
2022-08-03T18:36:22.127Z,26.52
2022-08-03T18:39:02.372Z,26.57
2022-08-03T18:41:35.011Z,26.47
2022-08-03T18:44:07.207Z,26.41
2022-08-03T18:47:07.264Z,26.37
2022-08-03T18:50:10.030Z,26.29
2022-08-03T18:52:53.151Z,26.23
2022-08-03T18:55:32.992Z,26.18
2022-08-03T18:58:17.899Z,26.13
2022-08-03T19:01:03.376Z,26.07
2022-08-03T19:03:41.289Z,25.98
2022-08-03T19:06:19.924Z,25.95
2022-08-03T19:08:56.287Z,25.92
2022-08-03T19:12:26.179Z,25.88
2022-08-03T19:14:46.083Z,25.81
2022-08-03T19:17:14.305Z,25.75
2022-08-03T19:19:51.597Z,25.72
2022-08-03T19:22:23.254Z,25.67
2022-08-03T19:24:55.418Z,25.60
2022-08-03T19:27:26.846Z,25.57
2022-08-03T19:29:59.750Z,25.51
2022-08-03T19:32:29.712Z,25.46
2022-08-03T19:34:59.662Z,25.41
2022-08-03T19:37:33.279Z,25.35
2022-08-03T19:40:10.221Z,25.13
2022-08-03T19:42:44.735Z,25.26
2022-08-03T19:45:22.065Z,25.20
2022-08-03T19:48:13.991Z,25.13
2022-08-03T19:50:44.388Z,25.08
2022-08-03T19:53:13.344Z,25.04
2022-08-03T19:55:48.991Z,24.91
2022-08-03T19:58:17.727Z,25.00
2022-08-03T20:00:55.860Z,24.90
2022-08-03T20:03:28.030Z,24.89
2022-08-03T20:06:12.662Z,24.85
2022-08-03T20:08:44.439Z,24.86
2022-08-03T20:11:11.875Z,24.84
2022-08-03T20:13:39.364Z,24.82
2022-08-03T20:16:06.932Z,24.73
2022-08-03T20:18:39.444Z,24.64
2022-08-03T20:21:14.960Z,24.72
2022-08-03T20:24:03.360Z,24.67
2022-08-03T20:26:32.468Z,24.67
2022-08-03T20:29:09.235Z,24.64
2022-08-03T20:31:51.112Z,24.48
2022-08-03T20:34:18.176Z,24.55
2022-08-03T20:36:45.337Z,24.51
2022-08-03T20:39:12.412Z,24.48
2022-08-03T20:41:41.052Z,24.43
2022-08-03T20:44:08.179Z,24.44
2022-08-03T20:49:23.787Z,24.40
2022-08-03T20:51:53.116Z,24.34
2022-08-03T20:54:30.611Z,24.32
2022-08-03T20:57:04.087Z,24.28
2022-08-03T20:59:50.800Z,24.19
2022-08-03T21:02:28.813Z,24.17
2022-08-03T21:04:56.747Z,24.19
2022-08-03T21:07:24.393Z,24.13
2022-08-03T21:09:53.681Z,24.11
2022-08-03T21:12:51.032Z,24.02
2022-08-03T21:13:07.421Z,24.36
2022-08-03T21:16:04.865Z,24.03
2022-08-03T21:18:14.837Z,23.99
2022-08-03T21:20:46.735Z,23.97
2022-08-03T21:23:39.899Z,23.98
2022-08-03T21:26:03.171Z,23.93
2022-08-03T21:28:30.408Z,23.85
2022-08-03T21:30:59.119Z,23.79
2022-08-03T21:33:34.200Z,23.89
2022-08-03T21:36:04.487Z,23.76
2022-08-03T21:38:32.618Z,23.84
2022-08-03T21:40:59.748Z,23.75
2022-08-03T21:43:26.937Z,23.75
2022-08-03T21:45:59.013Z,23.72
2022-08-03T21:48:27.597Z,23.69
2022-08-03T21:50:55.104Z,23.67
2022-08-03T21:53:25.978Z,23.66
2022-08-03T21:56:15.780Z,23.61
2022-08-03T21:58:54.069Z,23.58
2022-08-03T22:01:25.418Z,23.50
2022-08-03T22:03:54.709Z,23.54
2022-08-03T22:06:23.020Z,23.51
2022-08-03T22:08:54.570Z,23.46
2022-08-03T22:11:21.755Z,23.42
2022-08-03T22:13:50.847Z,23.38
2022-08-03T22:16:18.980Z,23.34
2022-08-03T22:18:46.408Z,23.35
2022-08-03T22:21:16.652Z,23.30
2022-08-03T22:23:58.991Z,23.26
2022-08-03T22:26:32.245Z,23.26
2022-08-03T22:29:19.422Z,23.20
2022-08-03T22:31:58.151Z,23.20
2022-08-03T22:34:27.281Z,23.22
2022-08-03T22:37:00.342Z,23.19
2022-08-03T22:39:29.369Z,23.18
2022-08-03T22:41:59.852Z,23.11
2022-08-03T22:44:28.276Z,23.19
2022-08-03T22:46:56.259Z,23.18
2022-08-03T22:49:24.179Z,23.14
2022-08-03T22:51:53.741Z,23.16
2022-08-03T22:54:21.158Z,23.13
2022-08-03T22:56:49.374Z,23.00
2022-08-03T22:59:41.100Z,23.03
2022-08-03T23:02:22.680Z,22.93
2022-08-03T23:04:52.899Z,23.03
2022-08-03T23:07:21.550Z,23.00
2022-08-03T23:09:49.908Z,22.99
2022-08-03T23:12:20.475Z,23.00
2022-08-03T23:15:01.677Z,23.01
2022-08-03T23:17:31.379Z,23.05
2022-08-03T23:20:08.779Z,23.06
2022-08-03T23:22:39.616Z,22.96
2022-08-03T23:25:10.937Z,23.04
2022-08-03T23:27:48.835Z,23.01
2022-08-03T23:30:37.690Z,23.00
2022-08-03T23:33:06.951Z,23.01
2022-08-03T23:36:27.550Z,23.00
2022-08-03T23:38:43.708Z,22.98
2022-08-03T23:41:11.144Z,22.99
2022-08-03T23:43:50.777Z,22.94
2022-08-03T23:46:21.855Z,22.95
2022-08-03T23:48:48.949Z,22.95
2022-08-03T23:51:57.224Z,22.93
2022-08-03T23:55:06.160Z,22.94
2022-08-03T23:57:38.138Z,22.85
